Aviation Digital Data Service (ADDS)

Output produced by METARs form (2009 UTC 17 November 2019)
found at http://www.aviationweather.gov/metar/data/
 
METAR text: VTCC 172000Z 00000KT 9999 FEW035 20/19 Q1014 NOSIG
Conditions at: VTCC (CHIANG MAI(CIV/A, TH) observed 2000 UTC 17 November 2019
Temperature: 20.0°C (68°F)
Dewpoint: 19.0°C (66°F) [RH = 94%]
Pressure (altimeter): 29.94 inches Hg (1014.0 mb)
Winds: calm
Visibility: 6 or more miles (10+ km)
Ceiling: at least 12,000 feet AGL
Clouds: few clouds at 3500 feet AGL
Weather: no significant weather observed at this time

METAR text: VTCC 171930Z 00000KT 9999 FEW035 21/19 Q1014 NOSIG
Conditions at: VTCC (CHIANG MAI(CIV/A, TH) observed 1930 UTC 17 November 2019
Temperature: 21.0°C (70°F)
Dewpoint: 19.0°C (66°F) [RH = 88%]
Pressure (altimeter): 29.94 inches Hg (1014.0 mb)
Winds: calm
Visibility: 6 or more miles (10+ km)
Ceiling: at least 12,000 feet AGL
Clouds: few clouds at 3500 feet AGL
Weather: no significant weather observed at this time

METAR text: VTCC 171900Z 27003KT 9999 FEW035 21/19 Q1014 NOSIG
Conditions at: VTCC (CHIANG MAI(CIV/A, TH) observed 1900 UTC 17 November 2019
Temperature: 21.0°C (70°F)
Dewpoint: 19.0°C (66°F) [RH = 88%]
Pressure (altimeter): 29.94 inches Hg (1014.0 mb)
Winds: from the W (270 degrees) at 3 MPH (3 knots; 1.5 m/s)
Visibility: 6 or more miles (10+ km)
Ceiling: at least 12,000 feet AGL
Clouds: few clouds at 3500 feet AGL
Weather: no significant weather observed at this time

METAR text: VTCC 171830Z 00000KT 9999 FEW035 21/20 Q1014 NOSIG
Conditions at: VTCC (CHIANG MAI(CIV/A, TH) observed 1830 UTC 17 November 2019
Temperature: 21.0°C (70°F)
Dewpoint: 20.0°C (68°F) [RH = 94%]
Pressure (altimeter): 29.94 inches Hg (1014.0 mb)
Winds: calm
Visibility: 6 or more miles (10+ km)
Ceiling: at least 12,000 feet AGL
Clouds: few clouds at 3500 feet AGL
Weather: no significant weather observed at this time

METAR text: VTCC 171800Z 00000KT 9999 FEW035 22/20 Q1014 NOSIG
Conditions at: VTCC (CHIANG MAI(CIV/A, TH) observed 1800 UTC 17 November 2019
Temperature: 22.0°C (72°F)
Dewpoint: 20.0°C (68°F) [RH = 88%]
Pressure (altimeter): 29.94 inches Hg (1014.0 mb)
Winds: calm
Visibility: 6 or more miles (10+ km)
Ceiling: at least 12,000 feet AGL
Clouds: few clouds at 3500 feet AGL
Weather: no significant weather observed at this time

METAR text: VTCC 171730Z 00000KT 9999 FEW035 22/20 Q1014 NOSIG
Conditions at: VTCC (CHIANG MAI(CIV/A, TH) observed 1730 UTC 17 November 2019
Temperature: 22.0°C (72°F)
Dewpoint: 20.0°C (68°F) [RH = 88%]
Pressure (altimeter): 29.94 inches Hg (1014.0 mb)
Winds: calm
Visibility: 6 or more miles (10+ km)
Ceiling: at least 12,000 feet AGL
Clouds: few clouds at 3500 feet AGL
Weather: no significant weather observed at this time

METAR text: VTCC 171700Z 00000KT 9999 FEW035 23/20 Q1014 NOSIG
Conditions at: VTCC (CHIANG MAI(CIV/A, TH) observed 1700 UTC 17 November 2019
Temperature: 23.0°C (73°F)
Dewpoint: 20.0°C (68°F) [RH = 83%]
Pressure (altimeter): 29.94 inches Hg (1014.0 mb)
Winds: calm
Visibility: 6 or more miles (10+ km)
Ceiling: at least 12,000 feet AGL
Clouds: few clouds at 3500 feet AGL
Weather: no significant weather observed at this time

METAR text: VTCC 171630Z 00000KT 9999 FEW035 23/21 Q1014 NOSIG
Conditions at: VTCC (CHIANG MAI(CIV/A, TH) observed 1630 UTC 17 November 2019
Temperature: 23.0°C (73°F)
Dewpoint: 21.0°C (70°F) [RH = 89%]
Pressure (altimeter): 29.94 inches Hg (1014.0 mb)
Winds: calm
Visibility: 6 or more miles (10+ km)
Ceiling: at least 12,000 feet AGL
Clouds: few clouds at 3500 feet AGL
Weather: no significant weather observed at this time

METAR text: VTCC 171600Z 00000KT 9999 FEW035 24/21 Q1014 NOSIG
Conditions at: VTCC (CHIANG MAI(CIV/A, TH) observed 1600 UTC 17 November 2019
Temperature: 24.0°C (75°F)
Dewpoint: 21.0°C (70°F) [RH = 83%]
Pressure (altimeter): 29.94 inches Hg (1014.0 mb)
Winds: calm
Visibility: 6 or more miles (10+ km)
Ceiling: at least 12,000 feet AGL
Clouds: few clouds at 3500 feet AGL
Weather: no significant weather observed at this time

METAR text: VTCC 171530Z 00000KT 9999 FEW035 24/21 Q1014 NOSIG
Conditions at: VTCC (CHIANG MAI(CIV/A, TH) observed 1530 UTC 17 November 2019
Temperature: 24.0°C (75°F)
Dewpoint: 21.0°C (70°F) [RH = 83%]
Pressure (altimeter): 29.94 inches Hg (1014.0 mb)
Winds: calm
Visibility: 6 or more miles (10+ km)
Ceiling: at least 12,000 feet AGL
Clouds: few clouds at 3500 feet AGL
Weather: no significant weather observed at this time

METAR text: VTCC 171500Z 00000KT 9999 FEW035 24/21 Q1014 NOSIG
Conditions at: VTCC (CHIANG MAI(CIV/A, TH) observed 1500 UTC 17 November 2019
Temperature: 24.0°C (75°F)
Dewpoint: 21.0°C (70°F) [RH = 83%]
Pressure (altimeter): 29.94 inches Hg (1014.0 mb)
Winds: calm
Visibility: 6 or more miles (10+ km)
Ceiling: at least 12,000 feet AGL
Clouds: few clouds at 3500 feet AGL
Weather: no significant weather observed at this time

METAR text: VTCC 171430Z 00000KT 9999 FEW035 25/21 Q1014 NOSIG
Conditions at: VTCC (CHIANG MAI(CIV/A, TH) observed 1430 UTC 17 November 2019
Temperature: 25.0°C (77°F)
Dewpoint: 21.0°C (70°F) [RH = 79%]
Pressure (altimeter): 29.94 inches Hg (1014.0 mb)
Winds: calm
Visibility: 6 or more miles (10+ km)
Ceiling: at least 12,000 feet AGL
Clouds: few clouds at 3500 feet AGL
Weather: no significant weather observed at this time

METAR text: VTCC 171400Z VRB02KT 9999 FEW035 25/21 Q1014 NOSIG
Conditions at: VTCC (CHIANG MAI(CIV/A, TH) observed 1400 UTC 17 November 2019
Temperature: 25.0°C (77°F)
Dewpoint: 21.0°C (70°F) [RH = 79%]
Pressure (altimeter): 29.94 inches Hg (1014.0 mb)
Winds: variable direction winds at 2 MPH (2 knots; 1.0 m/s)
Visibility: 6 or more miles (10+ km)
Ceiling: at least 12,000 feet AGL
Clouds: few clouds at 3500 feet AGL
Weather: no significant weather observed at this time

METAR text: VTCC 171330Z 00000KT 9999 FEW035 25/21 Q1014 NOSIG
Conditions at: VTCC (CHIANG MAI(CIV/A, TH) observed 1330 UTC 17 November 2019
Temperature: 25.0°C (77°F)
Dewpoint: 21.0°C (70°F) [RH = 79%]
Pressure (altimeter): 29.94 inches Hg (1014.0 mb)
Winds: calm
Visibility: 6 or more miles (10+ km)
Ceiling: at least 12,000 feet AGL
Clouds: few clouds at 3500 feet AGL
Weather: no significant weather observed at this time

METAR text: VTCC 171300Z VRB02KT 9999 FEW035 26/21 Q1013 NOSIG
Conditions at: VTCC (CHIANG MAI(CIV/A, TH) observed 1300 UTC 17 November 2019
Temperature: 26.0°C (79°F)
Dewpoint: 21.0°C (70°F) [RH = 74%]
Pressure (altimeter): 29.91 inches Hg (1013.0 mb)
Winds: variable direction winds at 2 MPH (2 knots; 1.0 m/s)
Visibility: 6 or more miles (10+ km)
Ceiling: at least 12,000 feet AGL
Clouds: few clouds at 3500 feet AGL
Weather: no significant weather observed at this time

METAR text: VTCC 171230Z VRB02KT 9999 FEW035 26/21 Q1013 NOSIG
Conditions at: VTCC (CHIANG MAI(CIV/A, TH) observed 1230 UTC 17 November 2019
Temperature: 26.0°C (79°F)
Dewpoint: 21.0°C (70°F) [RH = 74%]
Pressure (altimeter): 29.91 inches Hg (1013.0 mb)
Winds: variable direction winds at 2 MPH (2 knots; 1.0 m/s)
Visibility: 6 or more miles (10+ km)
Ceiling: at least 12,000 feet AGL
Clouds: few clouds at 3500 feet AGL
Weather: no significant weather observed at this time

METAR text: VTCC 171200Z 00000KT 9999 SCT035 26/21 Q1013 NOSIG
Conditions at: VTCC (CHIANG MAI(CIV/A, TH) observed 1200 UTC 17 November 2019
Temperature: 26.0°C (79°F)
Dewpoint: 21.0°C (70°F) [RH = 74%]
Pressure (altimeter): 29.91 inches Hg (1013.0 mb)
Winds: calm
Visibility: 6 or more miles (10+ km)
Ceiling: at least 12,000 feet AGL
Clouds: scattered clouds at 3500 feet AGL
Weather: no significant weather observed at this time

METAR text: VTCC 171130Z 27004KT 9999 FEW035 28/22 Q1012 NOSIG
Conditions at: VTCC (CHIANG MAI(CIV/A, TH) observed 1130 UTC 17 November 2019
Temperature: 28.0°C (82°F)
Dewpoint: 22.0°C (72°F) [RH = 70%]
Pressure (altimeter): 29.88 inches Hg (1012.0 mb)
Winds: from the W (270 degrees) at 5 MPH (4 knots; 2.1 m/s)
Visibility: 6 or more miles (10+ km)
Ceiling: at least 12,000 feet AGL
Clouds: few clouds at 3500 feet AGL
Weather: no significant weather observed at this time

METAR text: VTCC 171100Z 00000KT 9999 FEW035 30/20 Q1012 NOSIG
Conditions at: VTCC (CHIANG MAI(CIV/A, TH) observed 1100 UTC 17 November 2019
Temperature: 30.0°C (86°F)
Dewpoint: 20.0°C (68°F) [RH = 55%]
Pressure (altimeter): 29.88 inches Hg (1012.0 mb)
Winds: calm
Visibility: 6 or more miles (10+ km)
Ceiling: at least 12,000 feet AGL
Clouds: few clouds at 3500 feet AGL
Weather: no significant weather observed at this time

METAR text: VTCC 171030Z 14004KT 9999 FEW035 31/20 Q1012 NOSIG
Conditions at: VTCC (CHIANG MAI(CIV/A, TH) observed 1030 UTC 17 November 2019
Temperature: 31.0°C (88°F)
Dewpoint: 20.0°C (68°F) [RH = 52%]
Pressure (altimeter): 29.88 inches Hg (1012.0 mb)
Winds: from the SE (140 degrees) at 5 MPH (4 knots; 2.1 m/s)
Visibility: 6 or more miles (10+ km)
Ceiling: at least 12,000 feet AGL
Clouds: few clouds at 3500 feet AGL
Weather: no significant weather observed at this time

METAR text: VTCC 171000Z 14005KT 9999 FEW035 32/20 Q1011 NOSIG
Conditions at: VTCC (CHIANG MAI(CIV/A, TH) observed 1000 UTC 17 November 2019
Temperature: 32.0°C (90°F)
Dewpoint: 20.0°C (68°F) [RH = 49%]
Pressure (altimeter): 29.85 inches Hg (1011.0 mb)
Winds: from the SE (140 degrees) at 6 MPH (5 knots; 2.6 m/s)
Visibility: 6 or more miles (10+ km)
Ceiling: at least 12,000 feet AGL
Clouds: few clouds at 3500 feet AGL
Weather: no significant weather observed at this time

METAR text: VTCC 170930Z 11004KT 9999 FEW035 32/20 Q1011 NOSIG
Conditions at: VTCC (CHIANG MAI(CIV/A, TH) observed 0930 UTC 17 November 2019
Temperature: 32.0°C (90°F)
Dewpoint: 20.0°C (68°F) [RH = 49%]
Pressure (altimeter): 29.85 inches Hg (1011.0 mb)
Winds: from the ESE (110 degrees) at 5 MPH (4 knots; 2.1 m/s)
Visibility: 6 or more miles (10+ km)
Ceiling: at least 12,000 feet AGL
Clouds: few clouds at 3500 feet AGL
Weather: no significant weather observed at this time

METAR text: VTCC 170900Z 10004KT 9999 FEW035 32/21 Q1011 NOSIG
Conditions at: VTCC (CHIANG MAI(CIV/A, TH) observed 0900 UTC 17 November 2019
Temperature: 32.0°C (90°F)
Dewpoint: 21.0°C (70°F) [RH = 52%]
Pressure (altimeter): 29.85 inches Hg (1011.0 mb)
Winds: from the E (100 degrees) at 5 MPH (4 knots; 2.1 m/s)
Visibility: 6 or more miles (10+ km)
Ceiling: at least 12,000 feet AGL
Clouds: few clouds at 3500 feet AGL
Weather: no significant weather observed at this time

METAR text: VTCC 170830Z VRB02KT 9999 FEW035 32/21 Q1011 NOSIG
Conditions at: VTCC (CHIANG MAI(CIV/A, TH) observed 0830 UTC 17 November 2019
Temperature: 32.0°C (90°F)
Dewpoint: 21.0°C (70°F) [RH = 52%]
Pressure (altimeter): 29.85 inches Hg (1011.0 mb)
Winds: variable direction winds at 2 MPH (2 knots; 1.0 m/s)
Visibility: 6 or more miles (10+ km)
Ceiling: at least 12,000 feet AGL
Clouds: few clouds at 3500 feet AGL
Weather: no significant weather observed at this time

METAR text: VTCC 170800Z 19004KT 9999 FEW035 32/21 Q1011 NOSIG
Conditions at: VTCC (CHIANG MAI(CIV/A, TH) observed 0800 UTC 17 November 2019
Temperature: 32.0°C (90°F)
Dewpoint: 21.0°C (70°F) [RH = 52%]
Pressure (altimeter): 29.85 inches Hg (1011.0 mb)
Winds: from the S (190 degrees) at 5 MPH (4 knots; 2.1 m/s)
Visibility: 6 or more miles (10+ km)
Ceiling: at least 12,000 feet AGL
Clouds: few clouds at 3500 feet AGL
Weather: no significant weather observed at this time

METAR text: VTCC 170730Z 36004KT 9999 FEW035 32/21 Q1012 NOSIG
Conditions at: VTCC (CHIANG MAI(CIV/A, TH) observed 0730 UTC 17 November 2019
Temperature: 32.0°C (90°F)
Dewpoint: 21.0°C (70°F) [RH = 52%]
Pressure (altimeter): 29.88 inches Hg (1012.0 mb)
Winds: from the N (360 degrees) at 5 MPH (4 knots; 2.1 m/s)
Visibility: 6 or more miles (10+ km)
Ceiling: at least 12,000 feet AGL
Clouds: few clouds at 3500 feet AGL
Weather: no significant weather observed at this time

METAR text: VTCC 170700Z 06003KT 9999 FEW035 31/21 Q1012 NOSIG
Conditions at: VTCC (CHIANG MAI(CIV/A, TH) observed 0700 UTC 17 November 2019
Temperature: 31.0°C (88°F)
Dewpoint: 21.0°C (70°F) [RH = 55%]
Pressure (altimeter): 29.88 inches Hg (1012.0 mb)
Winds: from the ENE (60 degrees) at 3 MPH (3 knots; 1.5 m/s)
Visibility: 6 or more miles (10+ km)
Ceiling: at least 12,000 feet AGL
Clouds: few clouds at 3500 feet AGL
Weather: no significant weather observed at this time

METAR text: VTCC 170630Z 04004KT 9999 FEW035 32/22 Q1013 NOSIG
Conditions at: VTCC (CHIANG MAI(CIV/A, TH) observed 0630 UTC 17 November 2019
Temperature: 32.0°C (90°F)
Dewpoint: 22.0°C (72°F) [RH = 56%]
Pressure (altimeter): 29.91 inches Hg (1013.0 mb)
Winds: from the NE (40 degrees) at 5 MPH (4 knots; 2.1 m/s)
Visibility: 6 or more miles (10+ km)
Ceiling: at least 12,000 feet AGL
Clouds: few clouds at 3500 feet AGL
Weather: no significant weather observed at this time

METAR text: VTCC 170600Z 36003KT 9999 FEW035 32/22 Q1013 NOSIG
Conditions at: VTCC (CHIANG MAI(CIV/A, TH) observed 0600 UTC 17 November 2019
Temperature: 32.0°C (90°F)
Dewpoint: 22.0°C (72°F) [RH = 56%]
Pressure (altimeter): 29.91 inches Hg (1013.0 mb)
Winds: from the N (360 degrees) at 3 MPH (3 knots; 1.5 m/s)
Visibility: 6 or more miles (10+ km)
Ceiling: at least 12,000 feet AGL
Clouds: few clouds at 3500 feet AGL
Weather: no significant weather observed at this time

METAR text: VTCC 170530Z VRB02KT 9999 FEW035 31/22 Q1014 NOSIG
Conditions at: VTCC (CHIANG MAI(CIV/A, TH) observed 0530 UTC 17 November 2019
Temperature: 31.0°C (88°F)
Dewpoint: 22.0°C (72°F) [RH = 59%]
Pressure (altimeter): 29.94 inches Hg (1014.0 mb)
Winds: variable direction winds at 2 MPH (2 knots; 1.0 m/s)
Visibility: 6 or more miles (10+ km)
Ceiling: at least 12,000 feet AGL
Clouds: few clouds at 3500 feet AGL
Weather: no significant weather observed at this time

METAR text: VTCC 170500Z 08005KT 9999 FEW035 30/21 Q1014 NOSIG
Conditions at: VTCC (CHIANG MAI(CIV/A, TH) observed 0500 UTC 17 November 2019
Temperature: 30.0°C (86°F)
Dewpoint: 21.0°C (70°F) [RH = 59%]
Pressure (altimeter): 29.94 inches Hg (1014.0 mb)
Winds: from the E (80 degrees) at 6 MPH (5 knots; 2.6 m/s)
Visibility: 6 or more miles (10+ km)
Ceiling: at least 12,000 feet AGL
Clouds: few clouds at 3500 feet AGL
Weather: no significant weather observed at this time

METAR text: VTCC 170430Z VRB02KT 9999 FEW035 30/21 Q1015 NOSIG
Conditions at: VTCC (CHIANG MAI(CIV/A, TH) observed 0430 UTC 17 November 2019
Temperature: 30.0°C (86°F)
Dewpoint: 21.0°C (70°F) [RH = 59%]
Pressure (altimeter): 29.97 inches Hg (1015.0 mb)
Winds: variable direction winds at 2 MPH (2 knots; 1.0 m/s)
Visibility: 6 or more miles (10+ km)
Ceiling: at least 12,000 feet AGL
Clouds: few clouds at 3500 feet AGL
Weather: no significant weather observed at this time

METAR text: VTCC 170400Z 10003KT 9999 FEW035 29/21 Q1016 NOSIG
Conditions at: VTCC (CHIANG MAI(CIV/A, TH) observed 0400 UTC 17 November 2019
Temperature: 29.0°C (84°F)
Dewpoint: 21.0°C (70°F) [RH = 62%]
Pressure (altimeter): 30.00 inches Hg (1016.0 mb)
Winds: from the E (100 degrees) at 3 MPH (3 knots; 1.5 m/s)
Visibility: 6 or more miles (10+ km)
Ceiling: at least 12,000 feet AGL
Clouds: few clouds at 3500 feet AGL
Weather: no significant weather observed at this time

METAR text: VTCC 170330Z 35003KT 9999 FEW035 28/21 Q1016 NOSIG
Conditions at: VTCC (CHIANG MAI(CIV/A, TH) observed 0330 UTC 17 November 2019
Temperature: 28.0°C (82°F)
Dewpoint: 21.0°C (70°F) [RH = 66%]
Pressure (altimeter): 30.00 inches Hg (1016.0 mb)
Winds: from the N (350 degrees) at 3 MPH (3 knots; 1.5 m/s)
Visibility: 6 or more miles (10+ km)
Ceiling: at least 12,000 feet AGL
Clouds: few clouds at 3500 feet AGL
Weather: no significant weather observed at this time

METAR text: VTCC 170300Z VRB02KT 9999 FEW035 28/21 Q1017 NOSIG
Conditions at: VTCC (CHIANG MAI(CIV/A, TH) observed 0300 UTC 17 November 2019
Temperature: 28.0°C (82°F)
Dewpoint: 21.0°C (70°F) [RH = 66%]
Pressure (altimeter): 30.03 inches Hg (1017.0 mb)
Winds: variable direction winds at 2 MPH (2 knots; 1.0 m/s)
Visibility: 6 or more miles (10+ km)
Ceiling: at least 12,000 feet AGL
Clouds: few clouds at 3500 feet AGL
Weather: no significant weather observed at this time

METAR text: VTCC 170230Z VRB02KT 9999 FEW035 27/21 Q1017 NOSIG
Conditions at: VTCC (CHIANG MAI(CIV/A, TH) observed 0230 UTC 17 November 2019
Temperature: 27.0°C (81°F)
Dewpoint: 21.0°C (70°F) [RH = 70%]
Pressure (altimeter): 30.03 inches Hg (1017.0 mb)
Winds: variable direction winds at 2 MPH (2 knots; 1.0 m/s)
Visibility: 6 or more miles (10+ km)
Ceiling: at least 12,000 feet AGL
Clouds: few clouds at 3500 feet AGL
Weather: no significant weather observed at this time

METAR text: VTCC 170200Z VRB02KT 9999 FEW035 26/21 Q1017 NOSIG
Conditions at: VTCC (CHIANG MAI(CIV/A, TH) observed 0200 UTC 17 November 2019
Temperature: 26.0°C (79°F)
Dewpoint: 21.0°C (70°F) [RH = 74%]
Pressure (altimeter): 30.03 inches Hg (1017.0 mb)
Winds: variable direction winds at 2 MPH (2 knots; 1.0 m/s)
Visibility: 6 or more miles (10+ km)
Ceiling: at least 12,000 feet AGL
Clouds: few clouds at 3500 feet AGL
Weather: no significant weather observed at this time

METAR text: VTCC 170130Z 00000KT CAVOK 26/21 Q1017 NOSIG
Conditions at: VTCC (CHIANG MAI(CIV/A, TH) observed 0130 UTC 17 November 2019
Temperature: 26.0°C (79°F)
Dewpoint: 21.0°C (70°F) [RH = 74%]
Pressure (altimeter): 30.03 inches Hg (1017.0 mb)
Winds: calm
Visibility: 6 or more miles (10+ km)
Ceiling: ceiling and visibility are OK
Clouds: unknown
Weather: no significant weather observed at this time

METAR text: VTCC 170100Z 00000KT CAVOK 25/21 Q1016 NOSIG
Conditions at: VTCC (CHIANG MAI(CIV/A, TH) observed 0100 UTC 17 November 2019
Temperature: 25.0°C (77°F)
Dewpoint: 21.0°C (70°F) [RH = 79%]
Pressure (altimeter): 30.00 inches Hg (1016.0 mb)
Winds: calm
Visibility: 6 or more miles (10+ km)
Ceiling: ceiling and visibility are OK
Clouds: unknown
Weather: no significant weather observed at this time

METAR text: VTCC 170030Z 00000KT CAVOK 23/21 Q1016 NOSIG
Conditions at: VTCC (CHIANG MAI(CIV/A, TH) observed 0030 UTC 17 November 2019
Temperature: 23.0°C (73°F)
Dewpoint: 21.0°C (70°F) [RH = 89%]
Pressure (altimeter): 30.00 inches Hg (1016.0 mb)
Winds: calm
Visibility: 6 or more miles (10+ km)
Ceiling: ceiling and visibility are OK
Clouds: unknown
Weather: no significant weather observed at this time

METAR text: VTCC 170000Z VRB02KT 9999 FEW035 21/20 Q1015 NOSIG
Conditions at: VTCC (CHIANG MAI(CIV/A, TH) observed 0000 UTC 17 November 2019
Temperature: 21.0°C (70°F)
Dewpoint: 20.0°C (68°F) [RH = 94%]
Pressure (altimeter): 29.97 inches Hg (1015.0 mb)
Winds: variable direction winds at 2 MPH (2 knots; 1.0 m/s)
Visibility: 6 or more miles (10+ km)
Ceiling: at least 12,000 feet AGL
Clouds: few clouds at 3500 feet AGL
Weather: no significant weather observed at this time

METAR text: VTCC 162330Z 00000KT 9999 FEW035 20/20 Q1015 NOSIG
Conditions at: VTCC (CHIANG MAI(CIV/A, TH) observed 2330 UTC 16 November 2019
Temperature: 20.0°C (68°F)
Dewpoint: 20.0°C (68°F) [RH = 100%]
Pressure (altimeter): 29.97 inches Hg (1015.0 mb)
Winds: calm
Visibility: 6 or more miles (10+ km)
Ceiling: at least 12,000 feet AGL
Clouds: few clouds at 3500 feet AGL
Weather: no significant weather observed at this time

METAR text: VTCC 162300Z 00000KT 9999 FEW035 20/20 Q1015 NOSIG
Conditions at: VTCC (CHIANG MAI(CIV/A, TH) observed 2300 UTC 16 November 2019
Temperature: 20.0°C (68°F)
Dewpoint: 20.0°C (68°F) [RH = 100%]
Pressure (altimeter): 29.97 inches Hg (1015.0 mb)
Winds: calm
Visibility: 6 or more miles (10+ km)
Ceiling: at least 12,000 feet AGL
Clouds: few clouds at 3500 feet AGL
Weather: no significant weather observed at this time

METAR text: VTCC 162230Z 00000KT 9999 FEW035 20/20 Q1014 NOSIG
Conditions at: VTCC (CHIANG MAI(CIV/A, TH) observed 2230 UTC 16 November 2019
Temperature: 20.0°C (68°F)
Dewpoint: 20.0°C (68°F) [RH = 100%]
Pressure (altimeter): 29.94 inches Hg (1014.0 mb)
Winds: calm
Visibility: 6 or more miles (10+ km)
Ceiling: at least 12,000 feet AGL
Clouds: few clouds at 3500 feet AGL
Weather: no significant weather observed at this time

METAR text: VTCC 162200Z 00000KT 9999 FEW035 20/20 Q1014 NOSIG
Conditions at: VTCC (CHIANG MAI(CIV/A, TH) observed 2200 UTC 16 November 2019
Temperature: 20.0°C (68°F)
Dewpoint: 20.0°C (68°F) [RH = 100%]
Pressure (altimeter): 29.94 inches Hg (1014.0 mb)
Winds: calm
Visibility: 6 or more miles (10+ km)
Ceiling: at least 12,000 feet AGL
Clouds: few clouds at 3500 feet AGL
Weather: no significant weather observed at this time

METAR text: VTCC 162130Z 00000KT 9999 FEW035 21/20 Q1014 NOSIG
Conditions at: VTCC (CHIANG MAI(CIV/A, TH) observed 2130 UTC 16 November 2019
Temperature: 21.0°C (70°F)
Dewpoint: 20.0°C (68°F) [RH = 94%]
Pressure (altimeter): 29.94 inches Hg (1014.0 mb)
Winds: calm
Visibility: 6 or more miles (10+ km)
Ceiling: at least 12,000 feet AGL
Clouds: few clouds at 3500 feet AGL
Weather: no significant weather observed at this time

METAR text: VTCC 162100Z 00000KT 9999 FEW035 21/20 Q1014 NOSIG
Conditions at: VTCC (CHIANG MAI(CIV/A, TH) observed 2100 UTC 16 November 2019
Temperature: 21.0°C (70°F)
Dewpoint: 20.0°C (68°F) [RH = 94%]
Pressure (altimeter): 29.94 inches Hg (1014.0 mb)
Winds: calm
Visibility: 6 or more miles (10+ km)
Ceiling: at least 12,000 feet AGL
Clouds: few clouds at 3500 feet AGL
Weather: no significant weather observed at this time

METAR text: VTCC 162030Z 00000KT 9999 FEW035 21/20 Q1014 NOSIG
Conditions at: VTCC (CHIANG MAI(CIV/A, TH) observed 2030 UTC 16 November 2019
Temperature: 21.0°C (70°F)
Dewpoint: 20.0°C (68°F) [RH = 94%]
Pressure (altimeter): 29.94 inches Hg (1014.0 mb)
Winds: calm
Visibility: 6 or more miles (10+ km)
Ceiling: at least 12,000 feet AGL
Clouds: few clouds at 3500 feet AGL
Weather: no significant weather observed at this time

METAR text: VTCC 162000Z 00000KT 9999 FEW035 21/20 Q1014 NOSIG
Conditions at: VTCC (CHIANG MAI(CIV/A, TH) observed 2000 UTC 16 November 2019
Temperature: 21.0°C (70°F)
Dewpoint: 20.0°C (68°F) [RH = 94%]
Pressure (altimeter): 29.94 inches Hg (1014.0 mb)
Winds: calm
Visibility: 6 or more miles (10+ km)
Ceiling: at least 12,000 feet AGL
Clouds: few clouds at 3500 feet AGL
Weather: no significant weather observed at this time

METAR text: VTCC 161930Z 00000KT 9999 FEW035 22/20 Q1014 NOSIG
Conditions at: VTCC (CHIANG MAI(CIV/A, TH) observed 1930 UTC 16 November 2019
Temperature: 22.0°C (72°F)
Dewpoint: 20.0°C (68°F) [RH = 88%]
Pressure (altimeter): 29.94 inches Hg (1014.0 mb)
Winds: calm
Visibility: 6 or more miles (10+ km)
Ceiling: at least 12,000 feet AGL
Clouds: few clouds at 3500 feet AGL
Weather: no significant weather observed at this time

METAR text: VTCC 161900Z 00000KT //// 9999 FEW035 22/20 Q1014 NOSIG
Conditions at: VTCC (CHIANG MAI(CIV/A, TH) observed 1900 UTC 16 November 2019
Temperature: 22.0°C (72°F)
Dewpoint: 20.0°C (68°F) [RH = 88%]
Pressure (altimeter): 29.94 inches Hg (1014.0 mb)
Winds: calm
Visibility: 6 or more miles (10+ km)
Ceiling: at least 12,000 feet AGL
Clouds: few clouds at 3500 feet AGL
Weather: no significant weather observed at this time

METAR text: VTCC 161830Z 00000KT 9999 FEW035 22/20 Q1014 NOSIG
Conditions at: VTCC (CHIANG MAI(CIV/A, TH) observed 1830 UTC 16 November 2019
Temperature: 22.0°C (72°F)
Dewpoint: 20.0°C (68°F) [RH = 88%]
Pressure (altimeter): 29.94 inches Hg (1014.0 mb)
Winds: calm
Visibility: 6 or more miles (10+ km)
Ceiling: at least 12,000 feet AGL
Clouds: few clouds at 3500 feet AGL
Weather: no significant weather observed at this time

METAR text: VTCC 161800Z 00000KT 9999 FEW035 22/20 Q1014 NOSIG
Conditions at: VTCC (CHIANG MAI(CIV/A, TH) observed 1800 UTC 16 November 2019
Temperature: 22.0°C (72°F)
Dewpoint: 20.0°C (68°F) [RH = 88%]
Pressure (altimeter): 29.94 inches Hg (1014.0 mb)
Winds: calm
Visibility: 6 or more miles (10+ km)
Ceiling: at least 12,000 feet AGL
Clouds: few clouds at 3500 feet AGL
Weather: no significant weather observed at this time

METAR text: VTCC 161730Z 32004KT 9999 FEW035 22/20 Q1014 NOSIG
Conditions at: VTCC (CHIANG MAI(CIV/A, TH) observed 1730 UTC 16 November 2019
Temperature: 22.0°C (72°F)
Dewpoint: 20.0°C (68°F) [RH = 88%]
Pressure (altimeter): 29.94 inches Hg (1014.0 mb)
Winds: from the NW (320 degrees) at 5 MPH (4 knots; 2.1 m/s)
Visibility: 6 or more miles (10+ km)
Ceiling: at least 12,000 feet AGL
Clouds: few clouds at 3500 feet AGL
Weather: no significant weather observed at this time

METAR text: VTCC 161700Z 23003KT 200V280 9999 FEW035 23/20 Q1014 NOSIG
Conditions at: VTCC (CHIANG MAI(CIV/A, TH) observed 1700 UTC 16 November 2019
Temperature: 23.0°C (73°F)
Dewpoint: 20.0°C (68°F) [RH = 83%]
Pressure (altimeter): 29.94 inches Hg (1014.0 mb)
Winds: from the SW (230 degrees) at 3 MPH (3 knots; 1.5 m/s)
Visibility: 6 or more miles (10+ km)
Ceiling: at least 12,000 feet AGL
Clouds: few clouds at 3500 feet AGL
Weather: no significant weather observed at this time

METAR text: VTCC 161630Z 00000KT 9999 FEW035 23/20 Q1014 NOSIG
Conditions at: VTCC (CHIANG MAI(CIV/A, TH) observed 1630 UTC 16 November 2019
Temperature: 23.0°C (73°F)
Dewpoint: 20.0°C (68°F) [RH = 83%]
Pressure (altimeter): 29.94 inches Hg (1014.0 mb)
Winds: calm
Visibility: 6 or more miles (10+ km)
Ceiling: at least 12,000 feet AGL
Clouds: few clouds at 3500 feet AGL
Weather: no significant weather observed at this time

METAR text: VTCC 161600Z 31003KT 9999 FEW035 23/20 Q1015 NOSIG
Conditions at: VTCC (CHIANG MAI(CIV/A, TH) observed 1600 UTC 16 November 2019
Temperature: 23.0°C (73°F)
Dewpoint: 20.0°C (68°F) [RH = 83%]
Pressure (altimeter): 29.97 inches Hg (1015.0 mb)
Winds: from the NW (310 degrees) at 3 MPH (3 knots; 1.5 m/s)
Visibility: 6 or more miles (10+ km)
Ceiling: at least 12,000 feet AGL
Clouds: few clouds at 3500 feet AGL
Weather: no significant weather observed at this time

METAR text: VTCC 161530Z 00000KT 9999 FEW035 24/21 Q1015 NOSIG
Conditions at: VTCC (CHIANG MAI(CIV/A, TH) observed 1530 UTC 16 November 2019
Temperature: 24.0°C (75°F)
Dewpoint: 21.0°C (70°F) [RH = 83%]
Pressure (altimeter): 29.97 inches Hg (1015.0 mb)
Winds: calm
Visibility: 6 or more miles (10+ km)
Ceiling: at least 12,000 feet AGL
Clouds: few clouds at 3500 feet AGL
Weather: no significant weather observed at this time

METAR text: VTCC 161500Z 00000KT 9999 FEW035 24/21 Q1015 NOSIG
Conditions at: VTCC (CHIANG MAI(CIV/A, TH) observed 1500 UTC 16 November 2019
Temperature: 24.0°C (75°F)
Dewpoint: 21.0°C (70°F) [RH = 83%]
Pressure (altimeter): 29.97 inches Hg (1015.0 mb)
Winds: calm
Visibility: 6 or more miles (10+ km)
Ceiling: at least 12,000 feet AGL
Clouds: few clouds at 3500 feet AGL
Weather: no significant weather observed at this time

METAR text: VTCC 161430Z VRB02KT 9999 FEW035 26/21 Q1014 NOSIG
Conditions at: VTCC (CHIANG MAI(CIV/A, TH) observed 1430 UTC 16 November 2019
Temperature: 26.0°C (79°F)
Dewpoint: 21.0°C (70°F) [RH = 74%]
Pressure (altimeter): 29.94 inches Hg (1014.0 mb)
Winds: variable direction winds at 2 MPH (2 knots; 1.0 m/s)
Visibility: 6 or more miles (10+ km)
Ceiling: at least 12,000 feet AGL
Clouds: few clouds at 3500 feet AGL
Weather: no significant weather observed at this time

METAR text: VTCC 161400Z VRB02KT 9999 FEW035 25/21 Q1014 NOSIG
Conditions at: VTCC (CHIANG MAI(CIV/A, TH) observed 1400 UTC 16 November 2019
Temperature: 25.0°C (77°F)
Dewpoint: 21.0°C (70°F) [RH = 79%]
Pressure (altimeter): 29.94 inches Hg (1014.0 mb)
Winds: variable direction winds at 2 MPH (2 knots; 1.0 m/s)
Visibility: 6 or more miles (10+ km)
Ceiling: at least 12,000 feet AGL
Clouds: few clouds at 3500 feet AGL
Weather: no significant weather observed at this time

METAR text: VTCC 161330Z VRB02KT 9999 FEW035 25/21 Q1014 NOSIG
Conditions at: VTCC (CHIANG MAI(CIV/A, TH) observed 1330 UTC 16 November 2019
Temperature: 25.0°C (77°F)
Dewpoint: 21.0°C (70°F) [RH = 79%]
Pressure (altimeter): 29.94 inches Hg (1014.0 mb)
Winds: variable direction winds at 2 MPH (2 knots; 1.0 m/s)
Visibility: 6 or more miles (10+ km)
Ceiling: at least 12,000 feet AGL
Clouds: few clouds at 3500 feet AGL
Weather: no significant weather observed at this time

METAR text: VTCC 161300Z 27004KT 240V320 9999 FEW035 26/21 Q1013 NOSIG
Conditions at: VTCC (CHIANG MAI(CIV/A, TH) observed 1300 UTC 16 November 2019
Temperature: 26.0°C (79°F)
Dewpoint: 21.0°C (70°F) [RH = 74%]
Pressure (altimeter): 29.91 inches Hg (1013.0 mb)
Winds: from the W (270 degrees) at 5 MPH (4 knots; 2.1 m/s)
Visibility: 6 or more miles (10+ km)
Ceiling: at least 12,000 feet AGL
Clouds: few clouds at 3500 feet AGL
Weather: no significant weather observed at this time

METAR text: VTCC 161230Z 26004KT 240V300 9999 FEW035 27/21 Q1013 NOSIG
Conditions at: VTCC (CHIANG MAI(CIV/A, TH) observed 1230 UTC 16 November 2019
Temperature: 27.0°C (81°F)
Dewpoint: 21.0°C (70°F) [RH = 70%]
Pressure (altimeter): 29.91 inches Hg (1013.0 mb)
Winds: from the W (260 degrees) at 5 MPH (4 knots; 2.1 m/s)
Visibility: 6 or more miles (10+ km)
Ceiling: at least 12,000 feet AGL
Clouds: few clouds at 3500 feet AGL
Weather: no significant weather observed at this time

METAR text: VTCC 161200Z 27005KT 9999 FEW035 27/21 Q1013 NOSIG
Conditions at: VTCC (CHIANG MAI(CIV/A, TH) observed 1200 UTC 16 November 2019
Temperature: 27.0°C (81°F)
Dewpoint: 21.0°C (70°F) [RH = 70%]
Pressure (altimeter): 29.91 inches Hg (1013.0 mb)
Winds: from the W (270 degrees) at 6 MPH (5 knots; 2.6 m/s)
Visibility: 6 or more miles (10+ km)
Ceiling: at least 12,000 feet AGL
Clouds: few clouds at 3500 feet AGL
Weather: no significant weather observed at this time

METAR text: VTCC 161130Z 27005KT 9999 FEW035 28/21 Q1012 NOSIG
Conditions at: VTCC (CHIANG MAI(CIV/A, TH) observed 1130 UTC 16 November 2019
Temperature: 28.0°C (82°F)
Dewpoint: 21.0°C (70°F) [RH = 66%]
Pressure (altimeter): 29.88 inches Hg (1012.0 mb)
Winds: from the W (270 degrees) at 6 MPH (5 knots; 2.6 m/s)
Visibility: 6 or more miles (10+ km)
Ceiling: at least 12,000 feet AGL
Clouds: few clouds at 3500 feet AGL
Weather: no significant weather observed at this time

METAR text: VTCC 161100Z 28005KT 240V330 9999 FEW035 29/22 Q1012 NOSIG
Conditions at: VTCC (CHIANG MAI(CIV/A, TH) observed 1100 UTC 16 November 2019
Temperature: 29.0°C (84°F)
Dewpoint: 22.0°C (72°F) [RH = 66%]
Pressure (altimeter): 29.88 inches Hg (1012.0 mb)
Winds: from the W (280 degrees) at 6 MPH (5 knots; 2.6 m/s)
Visibility: 6 or more miles (10+ km)
Ceiling: at least 12,000 feet AGL
Clouds: few clouds at 3500 feet AGL
Weather: no significant weather observed at this time

METAR text: VTCC 161030Z 20005KT 170V230 9999 FEW035 33/20 Q1012 NOSIG
Conditions at: VTCC (CHIANG MAI(CIV/A, TH) observed 1030 UTC 16 November 2019
Temperature: 33.0°C (91°F)
Dewpoint: 20.0°C (68°F) [RH = 46%]
Pressure (altimeter): 29.88 inches Hg (1012.0 mb)
Winds: from the SSW (200 degrees) at 6 MPH (5 knots; 2.6 m/s)
Visibility: 6 or more miles (10+ km)
Ceiling: at least 12,000 feet AGL
Clouds: few clouds at 3500 feet AGL
Weather: no significant weather observed at this time

METAR text: VTCC 161000Z VRB03KT 9999 FEW035 32/19 Q1011 NOSIG
Conditions at: VTCC (CHIANG MAI(CIV/A, TH) observed 1000 UTC 16 November 2019
Temperature: 32.0°C (90°F)
Dewpoint: 19.0°C (66°F) [RH = 46%]
Pressure (altimeter): 29.85 inches Hg (1011.0 mb)
Winds: variable direction winds at 3 MPH (3 knots; 1.5 m/s)
Visibility: 6 or more miles (10+ km)
Ceiling: at least 12,000 feet AGL
Clouds: few clouds at 3500 feet AGL
Weather: no significant weather observed at this time

METAR text: VTCC 160930Z VRB03KT 9999 FEW035 33/20 Q1011 NOSIG
Conditions at: VTCC (CHIANG MAI(CIV/A, TH) observed 0930 UTC 16 November 2019
Temperature: 33.0°C (91°F)
Dewpoint: 20.0°C (68°F) [RH = 46%]
Pressure (altimeter): 29.85 inches Hg (1011.0 mb)
Winds: variable direction winds at 3 MPH (3 knots; 1.5 m/s)
Visibility: 6 or more miles (10+ km)
Ceiling: at least 12,000 feet AGL
Clouds: few clouds at 3500 feet AGL
Weather: no significant weather observed at this time

METAR text: VTCC 160900Z VRB02KT 9999 FEW035 33/21 Q1011 NOSIG
Conditions at: VTCC (CHIANG MAI(CIV/A, TH) observed 0900 UTC 16 November 2019
Temperature: 33.0°C (91°F)
Dewpoint: 21.0°C (70°F) [RH = 49%]
Pressure (altimeter): 29.85 inches Hg (1011.0 mb)
Winds: variable direction winds at 2 MPH (2 knots; 1.0 m/s)
Visibility: 6 or more miles (10+ km)
Ceiling: at least 12,000 feet AGL
Clouds: few clouds at 3500 feet AGL
Weather: no significant weather observed at this time

METAR text: VTCC 160830Z VRB02KT 9999 FEW035 32/20 Q1012 NOSIG
Conditions at: VTCC (CHIANG MAI(CIV/A, TH) observed 0830 UTC 16 November 2019
Temperature: 32.0°C (90°F)
Dewpoint: 20.0°C (68°F) [RH = 49%]
Pressure (altimeter): 29.88 inches Hg (1012.0 mb)
Winds: variable direction winds at 2 MPH (2 knots; 1.0 m/s)
Visibility: 6 or more miles (10+ km)
Ceiling: at least 12,000 feet AGL
Clouds: few clouds at 3500 feet AGL
Weather: no significant weather observed at this time

Forecast for: VTCC (CHIANG MAI(CIV/A, TH)
Text: TAF VTCC 171700Z 1718/1824 14005KT 9999 FEW035
Forecast period: 1800 UTC 17 November 2019 to 0000 UTC 19 November 2019
Forecast type: FROM: standard forecast or significant change
Winds: from the SE (140 degrees) at 6 MPH (5 knots; 2.6 m/s)
Visibility: 6 or more miles 10+ km)
Ceiling: at least 12,000 feet AGL
Clouds: few clouds at 3500 feet AGL
Weather: no significant weather forecast for this period